createdAt,value
2019-05-22T00:00:50.678Z,992.69
2019-05-22T00:01:50.657Z,992.66
2019-05-22T00:02:50.645Z,992.70
2019-05-22T00:03:50.624Z,992.66
2019-05-22T00:04:50.604Z,992.68
2019-05-22T00:05:50.590Z,992.69
2019-05-22T00:06:50.575Z,992.68
2019-05-22T00:07:50.560Z,992.65
2019-05-22T00:08:50.546Z,992.66
2019-05-22T00:09:50.522Z,992.67
2019-05-22T00:10:50.604Z,992.67
2019-05-22T00:11:50.494Z,992.68
2019-05-22T00:12:50.476Z,992.68
2019-05-22T00:13:50.461Z,992.67
2019-05-22T00:14:50.443Z,992.69
2019-05-22T00:15:50.433Z,992.70
2019-05-22T00:16:50.417Z,992.70
2019-05-22T00:17:50.413Z,992.71
2019-05-22T00:18:50.398Z,992.69
2019-05-22T00:19:50.391Z,992.74
2019-05-22T00:20:50.353Z,992.70
2019-05-22T00:21:50.333Z,992.71
2019-05-22T00:22:50.320Z,992.72
2019-05-22T00:23:50.300Z,992.69
2019-05-22T00:24:50.285Z,992.71
2019-05-22T00:25:50.272Z,992.69
2019-05-22T00:26:50.263Z,992.65
2019-05-22T00:27:50.235Z,992.70
2019-05-22T00:28:50.233Z,992.68
2019-05-22T00:29:50.214Z,992.72
2019-05-22T00:30:50.191Z,992.68
2019-05-22T00:31:50.183Z,992.67
2019-05-22T00:32:50.161Z,992.66
2019-05-22T00:33:50.139Z,992.69
2019-05-22T00:34:50.129Z,992.67
2019-05-22T00:35:50.113Z,992.66
2019-05-22T00:36:50.100Z,992.70
2019-05-22T00:37:50.100Z,992.72
2019-05-22T00:38:50.091Z,992.71
2019-05-22T00:39:50.045Z,992.71
2019-05-22T00:40:50.036Z,992.69
2019-05-22T00:41:50.016Z,992.70
2019-05-22T00:43:03.823Z,992.70
2019-05-22T00:43:50.007Z,992.72
2019-05-22T00:44:49.980Z,992.72
2019-05-22T00:45:49.960Z,992.75
2019-05-22T00:46:49.947Z,992.71
2019-05-22T00:47:49.933Z,992.72
2019-05-22T00:48:49.910Z,992.74
2019-05-22T00:49:49.893Z,992.76
2019-05-22T00:50:49.879Z,992.76
2019-05-22T00:51:49.864Z,992.72
2019-05-22T00:52:49.859Z,992.74
2019-05-22T00:53:49.850Z,992.74
2019-05-22T00:54:49.912Z,992.68
2019-05-22T00:55:49.899Z,992.73
2019-05-22T00:56:49.785Z,992.73
2019-05-22T00:57:49.870Z,992.74
2019-05-22T00:58:49.743Z,992.77
2019-05-22T00:59:49.736Z,992.81
2019-05-22T01:00:49.720Z,992.80
2019-05-22T01:01:49.724Z,992.81
2019-05-22T01:02:49.690Z,992.83
2019-05-22T01:03:49.689Z,992.84
2019-05-22T01:04:49.666Z,992.87
2019-05-22T01:05:49.647Z,992.86
2019-05-22T01:06:49.620Z,992.89
2019-05-22T01:07:49.606Z,992.87
2019-05-22T01:08:49.594Z,992.90
2019-05-22T01:09:49.575Z,992.90
2019-05-22T01:10:49.555Z,992.94
2019-05-22T01:11:49.545Z,992.96
2019-05-22T01:12:49.528Z,992.92
2019-05-22T01:13:49.547Z,992.96
2019-05-22T01:14:49.498Z,992.93
2019-05-22T01:15:49.500Z,993.00
2019-05-22T01:16:49.572Z,992.98
2019-05-22T01:17:49.467Z,992.99
2019-05-22T01:18:49.432Z,993.01
2019-05-22T01:19:49.439Z,992.99
2019-05-22T01:20:49.404Z,992.96
2019-05-22T01:21:49.389Z,992.98
2019-05-22T01:22:49.367Z,992.99
2019-05-22T01:23:49.356Z,992.98
2019-05-22T01:24:49.334Z,992.97
2019-05-22T01:25:49.323Z,992.99
2019-05-22T01:26:49.307Z,993.03
2019-05-22T01:27:49.289Z,993.00
2019-05-22T01:28:49.329Z,993.02
2019-05-22T01:29:49.262Z,993.01
2019-05-22T01:30:49.245Z,993.04
2019-05-22T01:31:49.227Z,993.00
2019-05-22T01:32:49.222Z,993.00
2019-05-22T01:33:49.198Z,993.01
2019-05-22T01:34:49.174Z,993.02
2019-05-22T01:35:49.164Z,993.03
2019-05-22T01:36:49.149Z,993.02
2019-05-22T01:37:49.129Z,992.99
2019-05-22T01:38:49.180Z,992.98
2019-05-22T01:39:49.096Z,993.04
2019-05-22T01:40:49.092Z,993.08
2019-05-22T01:41:49.069Z,993.08
2019-05-22T01:42:49.054Z,993.12
2019-05-22T01:43:49.063Z,993.06
2019-05-22T01:45:00.621Z,993.12
2019-05-22T01:45:49.005Z,993.10
2019-05-22T01:46:48.993Z,993.12
2019-05-22T01:47:48.973Z,993.13
2019-05-22T01:48:48.960Z,993.08
2019-05-22T01:49:48.944Z,993.12
2019-05-22T01:50:48.942Z,993.07
2019-05-22T01:51:48.926Z,993.11
2019-05-22T01:52:48.972Z,993.11
2019-05-22T01:53:48.884Z,993.13
2019-05-22T01:54:48.856Z,993.12
2019-05-22T01:55:48.847Z,993.16
2019-05-22T01:56:48.833Z,993.11
2019-05-22T01:57:48.815Z,993.14
2019-05-22T01:58:48.799Z,993.16
2019-05-22T01:59:48.786Z,993.17
2019-05-22T02:00:48.772Z,993.12
2019-05-22T02:01:48.754Z,993.13
2019-05-22T02:02:48.774Z,993.11
2019-05-22T02:03:48.729Z,993.10
2019-05-22T02:04:48.709Z,993.10
2019-05-22T02:05:48.696Z,993.09
2019-05-22T02:06:48.683Z,993.10
2019-05-22T02:07:48.661Z,993.11
2019-05-22T02:08:48.643Z,993.06
2019-05-22T02:09:48.639Z,993.11
2019-05-22T02:10:48.614Z,993.13
2019-05-22T02:11:48.595Z,993.12
2019-05-22T02:12:48.580Z,993.18
2019-05-22T02:13:48.571Z,993.18
2019-05-22T02:14:48.548Z,993.17
2019-05-22T02:15:48.533Z,993.16
2019-05-22T02:16:56.983Z,993.16
2019-05-22T02:17:48.503Z,993.13
2019-05-22T02:18:48.488Z,993.15
2019-05-22T02:19:48.471Z,993.11
2019-05-22T02:20:48.454Z,993.12
2019-05-22T02:21:48.440Z,993.06
2019-05-22T02:22:48.423Z,993.07
2019-05-22T02:23:48.407Z,993.05
2019-05-22T02:24:48.390Z,993.17
2019-05-22T02:25:48.366Z,993.13
2019-05-22T02:26:48.359Z,993.16
2019-05-22T02:27:48.343Z,993.16
2019-05-22T02:28:48.332Z,993.21
2019-05-22T02:29:48.306Z,993.15
2019-05-22T02:30:48.303Z,993.18
2019-05-22T02:31:48.289Z,993.14
2019-05-22T02:32:48.267Z,993.12
2019-05-22T02:33:48.250Z,993.15
2019-05-22T02:34:48.232Z,993.10
2019-05-22T02:35:48.227Z,993.14
2019-05-22T02:36:48.199Z,993.14
2019-05-22T02:37:48.192Z,993.18
2019-05-22T02:38:48.175Z,993.14
2019-05-22T02:39:48.165Z,993.15
2019-05-22T02:40:48.139Z,993.16
2019-05-22T02:41:48.116Z,993.14
2019-05-22T02:42:48.111Z,993.17
2019-05-22T02:43:48.083Z,993.17
2019-05-22T02:44:48.076Z,993.19
2019-05-22T02:45:48.082Z,993.17
2019-05-22T02:46:48.046Z,993.20
2019-05-22T02:47:48.029Z,993.18
2019-05-22T02:48:48.011Z,993.20
2019-05-22T02:49:47.997Z,993.20
2019-05-22T02:50:47.985Z,993.21
2019-05-22T02:51:47.966Z,993.19
2019-05-22T02:52:47.968Z,993.22
2019-05-22T02:53:47.953Z,993.19
2019-05-22T02:54:47.944Z,993.21
2019-05-22T02:55:47.936Z,993.18
2019-05-22T02:56:47.896Z,993.20
2019-05-22T02:57:47.872Z,993.19
2019-05-22T02:58:47.856Z,993.22
2019-05-22T02:59:47.836Z,993.20
2019-05-22T03:00:47.822Z,993.19
2019-05-22T03:01:47.811Z,993.22
2019-05-22T03:02:47.795Z,993.25
2019-05-22T03:03:47.770Z,993.23
2019-05-22T03:04:47.760Z,993.27
2019-05-22T03:05:47.753Z,993.27
2019-05-22T03:06:47.736Z,993.28
2019-05-22T03:07:47.715Z,993.31
2019-05-22T03:08:47.697Z,993.31
2019-05-22T03:09:47.700Z,993.31
2019-05-22T03:10:47.666Z,993.32
2019-05-22T03:11:47.649Z,993.33
2019-05-22T03:12:47.662Z,993.39
2019-05-22T03:13:47.613Z,993.38
2019-05-22T03:14:47.608Z,993.34
2019-05-22T03:15:47.589Z,993.37
2019-05-22T03:16:47.575Z,993.37
2019-05-22T03:17:47.552Z,993.40
2019-05-22T03:18:47.550Z,993.36
2019-05-22T03:19:47.519Z,993.34
2019-05-22T03:20:47.510Z,993.37
2019-05-22T03:21:47.487Z,993.34
2019-05-22T03:22:47.498Z,993.34
2019-05-22T03:23:47.480Z,993.35
2019-05-22T03:24:47.446Z,993.34
2019-05-22T03:25:47.439Z,993.31
2019-05-22T03:26:47.415Z,993.34
2019-05-22T03:27:47.412Z,993.33
2019-05-22T03:28:47.383Z,993.33
2019-05-22T03:29:47.372Z,993.36
2019-05-22T03:30:47.377Z,993.37
2019-05-22T03:31:47.338Z,993.34
2019-05-22T03:32:47.317Z,993.38
2019-05-22T03:33:47.454Z,993.36
2019-05-22T03:34:47.286Z,993.38
2019-05-22T03:35:47.930Z,993.37
2019-05-22T03:36:47.262Z,993.40
2019-05-22T03:37:47.238Z,993.35
2019-05-22T03:38:47.226Z,993.37
2019-05-22T03:39:47.205Z,993.42
2019-05-22T03:40:47.210Z,993.41
2019-05-22T03:41:47.175Z,993.37
2019-05-22T03:42:47.165Z,993.37
2019-05-22T03:43:47.137Z,993.35
2019-05-22T03:44:47.121Z,993.38
2019-05-22T03:45:47.113Z,993.40
2019-05-22T03:46:47.097Z,993.40
2019-05-22T03:47:47.079Z,993.41
2019-05-22T03:48:47.082Z,993.41
2019-05-22T03:49:47.047Z,993.42
2019-05-22T03:50:47.035Z,993.43
2019-05-22T03:51:47.022Z,993.39
2019-05-22T03:52:47.018Z,993.41
2019-05-22T03:53:46.995Z,993.45
2019-05-22T03:54:46.966Z,993.46
2019-05-22T03:55:46.955Z,993.44
2019-05-22T03:56:46.935Z,993.46
2019-05-22T03:57:46.924Z,993.45
2019-05-22T03:58:46.905Z,993.45
2019-05-22T03:59:46.906Z,993.47
2019-05-22T04:00:46.875Z,993.49
2019-05-22T04:01:46.857Z,993.44
2019-05-22T04:02:46.835Z,993.47
2019-05-22T04:03:46.838Z,993.52
2019-05-22T04:04:46.810Z,993.51
2019-05-22T04:05:46.797Z,993.45
2019-05-22T04:06:46.775Z,993.50
2019-05-22T04:07:46.758Z,993.53
2019-05-22T04:08:46.744Z,993.55
2019-05-22T04:09:46.751Z,993.57
2019-05-22T04:10:46.715Z,993.60
2019-05-22T04:11:46.703Z,993.56
2019-05-22T04:12:46.675Z,993.58
2019-05-22T04:13:46.664Z,993.58
2019-05-22T04:14:46.650Z,993.60
2019-05-22T04:15:46.639Z,993.59
2019-05-22T04:16:46.615Z,993.55
2019-05-22T04:17:46.605Z,993.64
2019-05-22T04:18:46.605Z,993.63
2019-05-22T04:19:50.340Z,993.58
2019-05-22T04:20:46.555Z,993.60
2019-05-22T04:21:46.541Z,993.62
2019-05-22T04:22:46.529Z,993.63
2019-05-22T04:23:46.508Z,993.62
2019-05-22T04:24:46.506Z,993.60
2019-05-22T04:25:46.471Z,993.59
2019-05-22T04:26:46.466Z,993.60
2019-05-22T04:27:46.446Z,993.61
2019-05-22T04:28:46.435Z,993.61
2019-05-22T04:29:46.419Z,993.60
2019-05-22T04:30:46.400Z,993.61
2019-05-22T04:31:46.376Z,993.61
2019-05-22T04:32:46.365Z,993.63
2019-05-22T04:33:46.346Z,993.64
2019-05-22T04:34:46.391Z,993.60
2019-05-22T04:35:46.309Z,993.65
2019-05-22T04:36:46.296Z,993.62
2019-05-22T04:37:46.322Z,993.63
2019-05-22T04:38:46.271Z,993.63
2019-05-22T04:39:46.253Z,993.65
2019-05-22T04:40:46.236Z,993.63
2019-05-22T04:41:46.218Z,993.66
2019-05-22T04:42:46.208Z,993.66
2019-05-22T04:43:46.204Z,993.70
2019-05-22T04:44:46.176Z,993.68
2019-05-22T04:45:46.157Z,993.68
2019-05-22T04:46:46.147Z,993.72
2019-05-22T04:47:46.120Z,993.69
2019-05-22T04:48:46.703Z,993.66
2019-05-22T04:49:46.098Z,993.69
2019-05-22T04:50:46.075Z,993.71
2019-05-22T04:51:46.063Z,993.69
2019-05-22T04:52:46.050Z,993.71
2019-05-22T04:53:46.027Z,993.72
2019-05-22T04:54:46.013Z,993.72
2019-05-22T04:55:45.996Z,993.71
2019-05-22T04:56:45.979Z,993.74
2019-05-22T04:57:45.968Z,993.72
2019-05-22T04:58:45.953Z,993.76
2019-05-22T04:59:45.931Z,993.76
2019-05-22T05:00:45.913Z,993.79
2019-05-22T05:01:45.902Z,993.81
2019-05-22T05:02:45.889Z,993.80
2019-05-22T05:03:45.873Z,993.81
2019-05-22T05:04:45.853Z,993.79
2019-05-22T05:05:45.843Z,993.81
2019-05-22T05:06:45.824Z,993.82
2019-05-22T05:07:45.808Z,993.84
2019-05-22T05:08:45.788Z,993.85
2019-05-22T05:09:45.779Z,993.85
2019-05-22T05:10:45.760Z,993.84
2019-05-22T05:11:45.746Z,993.85
2019-05-22T05:12:45.730Z,993.87
2019-05-22T05:13:45.707Z,993.85
2019-05-22T05:14:45.696Z,993.84
2019-05-22T05:15:45.677Z,993.87
2019-05-22T05:16:45.664Z,993.89
2019-05-22T05:17:45.651Z,993.88
2019-05-22T05:18:45.627Z,993.88
2019-05-22T05:19:45.616Z,993.89
2019-05-22T05:20:45.596Z,993.90
2019-05-22T05:21:45.585Z,993.95
2019-05-22T05:22:45.585Z,993.94
2019-05-22T05:23:45.571Z,993.95
2019-05-22T05:24:45.548Z,993.92
2019-05-22T05:25:45.522Z,993.92
2019-05-22T05:26:45.514Z,993.95
2019-05-22T05:27:45.488Z,994.01
2019-05-22T05:28:45.473Z,993.99
2019-05-22T05:29:45.463Z,993.96
2019-05-22T05:30:45.460Z,993.98
2019-05-22T05:31:45.425Z,994.04
2019-05-22T05:32:45.410Z,993.98
2019-05-22T05:33:45.400Z,993.97
2019-05-22T05:34:45.650Z,994.02
2019-05-22T05:35:45.353Z,994.04
2019-05-22T05:36:45.355Z,993.99
2019-05-22T05:37:45.325Z,994.04
2019-05-22T05:38:45.320Z,994.01
2019-05-22T05:39:45.294Z,994.03
2019-05-22T05:40:45.338Z,994.06
2019-05-22T05:41:45.271Z,994.07
2019-05-22T05:42:45.258Z,994.10
2019-05-22T05:43:45.237Z,994.08
2019-05-22T05:44:45.216Z,994.10
2019-05-22T05:45:45.205Z,994.10
2019-05-22T05:46:45.191Z,994.11
2019-05-22T05:47:45.175Z,994.16
2019-05-22T05:48:45.184Z,994.17
2019-05-22T05:49:45.143Z,994.17
2019-05-22T05:50:45.128Z,994.16
2019-05-22T05:51:45.109Z,994.17
2019-05-22T05:52:45.096Z,994.18
2019-05-22T05:53:45.080Z,994.19
2019-05-22T05:54:45.078Z,994.19
2019-05-22T05:55:45.054Z,994.20
2019-05-22T05:56:45.050Z,994.19
2019-05-22T05:57:45.009Z,994.23
2019-05-22T05:58:45.001Z,994.17
2019-05-22T05:59:44.985Z,994.24
2019-05-22T06:00:44.974Z,994.26
2019-05-22T06:01:44.956Z,994.26
2019-05-22T06:02:56.122Z,994.27
2019-05-22T06:03:44.925Z,994.26
2019-05-22T06:04:44.906Z,994.29
2019-05-22T06:05:44.899Z,994.27
2019-05-22T06:06:44.877Z,994.30
2019-05-22T06:07:44.866Z,994.34
2019-05-22T06:08:44.844Z,994.35
2019-05-22T06:09:44.832Z,994.32
2019-05-22T06:10:44.815Z,994.35
2019-05-22T06:11:44.801Z,994.36
2019-05-22T06:12:44.777Z,994.37
2019-05-22T06:13:44.764Z,994.34
2019-05-22T06:14:44.755Z,994.38
2019-05-22T06:15:47.645Z,994.41
2019-05-22T06:16:44.716Z,994.44
2019-05-22T06:17:44.734Z,994.41
2019-05-22T06:18:44.684Z,994.42
2019-05-22T06:19:44.672Z,994.43
2019-05-22T06:21:01.058Z,994.46
2019-05-22T06:21:44.650Z,994.46
2019-05-22T06:22:44.637Z,994.47
2019-05-22T06:23:44.608Z,994.48
2019-05-22T06:24:44.597Z,994.48
2019-05-22T06:25:44.580Z,994.51
2019-05-22T06:26:44.575Z,994.49
2019-05-22T06:27:44.547Z,994.47
2019-05-22T06:28:44.539Z,994.52
2019-05-22T06:29:44.535Z,994.53
2019-05-22T06:30:44.501Z,994.50
2019-05-22T06:31:44.493Z,994.53
2019-05-22T06:32:44.472Z,994.53
2019-05-22T06:33:44.462Z,994.56
2019-05-22T06:34:44.447Z,994.54
2019-05-22T06:35:44.494Z,994.56
2019-05-22T06:36:44.408Z,994.58
2019-05-22T06:37:44.409Z,994.59
2019-05-22T06:38:44.390Z,994.64
2019-05-22T06:39:44.358Z,994.61
2019-05-22T06:40:44.340Z,994.61
2019-05-22T06:41:44.332Z,994.58
2019-05-22T06:42:44.312Z,994.60
2019-05-22T06:43:44.302Z,994.57
2019-05-22T06:44:44.312Z,994.58
2019-05-22T06:45:44.274Z,994.58
2019-05-22T06:46:44.290Z,994.58
2019-05-22T06:47:44.248Z,994.57
2019-05-22T06:48:44.234Z,994.62
2019-05-22T06:49:44.211Z,994.63
2019-05-22T06:50:44.220Z,994.66
2019-05-22T06:51:44.196Z,994.64
2019-05-22T06:52:44.204Z,994.65
2019-05-22T06:53:44.254Z,994.67
2019-05-22T06:54:44.134Z,994.66
2019-05-22T06:55:44.125Z,994.63
2019-05-22T06:56:44.100Z,994.65
2019-05-22T06:57:44.100Z,994.64
2019-05-22T06:58:44.073Z,994.69
2019-05-22T06:59:44.070Z,994.68
2019-05-22T07:00:44.033Z,994.67
2019-05-22T07:01:44.027Z,994.64
2019-05-22T07:02:44.044Z,994.67
2019-05-22T07:03:43.997Z,994.67
2019-05-22T07:04:44.061Z,994.69
2019-05-22T07:05:43.969Z,994.73
2019-05-22T07:06:43.965Z,994.67
2019-05-22T07:07:43.934Z,994.70
2019-05-22T07:08:43.917Z,994.70
2019-05-22T07:09:43.902Z,994.72
2019-05-22T07:10:43.902Z,994.74
2019-05-22T07:11:43.872Z,994.75
2019-05-22T07:12:43.871Z,994.76
2019-05-22T07:13:43.842Z,994.76
2019-05-22T07:14:43.827Z,994.79
2019-05-22T07:15:43.812Z,994.81
2019-05-22T07:16:43.919Z,994.76
2019-05-22T07:17:43.780Z,994.78
2019-05-22T07:18:43.771Z,994.79
2019-05-22T07:19:43.744Z,994.79
2019-05-22T07:20:43.729Z,994.83
2019-05-22T07:21:43.723Z,994.82
2019-05-22T07:22:43.701Z,994.79
2019-05-22T07:23:43.695Z,994.82
2019-05-22T07:24:43.674Z,994.83
2019-05-22T07:25:43.660Z,994.87
2019-05-22T07:26:43.640Z,994.85
2019-05-22T07:27:43.632Z,994.84
2019-05-22T07:28:43.611Z,994.87
2019-05-22T07:29:43.597Z,994.91
2019-05-22T07:30:43.584Z,994.92
2019-05-22T07:31:43.562Z,995.00
2019-05-22T07:32:43.551Z,994.97
2019-05-22T07:33:43.539Z,994.93
2019-05-22T07:34:43.522Z,995.00
2019-05-22T07:36:04.602Z,995.01
2019-05-22T07:36:43.492Z,994.99
2019-05-22T07:37:43.482Z,995.00
2019-05-22T07:38:43.461Z,995.01
2019-05-22T07:39:43.449Z,995.00
2019-05-22T07:40:43.435Z,995.01
2019-05-22T07:41:43.422Z,994.97
2019-05-22T07:42:43.398Z,994.96
2019-05-22T07:43:43.448Z,995.06
2019-05-22T07:44:43.372Z,995.02
2019-05-22T07:45:43.357Z,995.03
2019-05-22T07:46:43.355Z,995.03
2019-05-22T07:47:43.331Z,995.06
2019-05-22T07:48:43.310Z,995.08
2019-05-22T07:49:43.307Z,995.08
2019-05-22T07:50:47.769Z,995.08
2019-05-22T07:51:54.056Z,995.04
2019-05-22T07:52:43.279Z,995.07
2019-05-22T07:53:43.231Z,995.07
2019-05-22T07:54:43.243Z,995.09
2019-05-22T07:55:43.203Z,995.10
2019-05-22T07:56:43.191Z,995.10
2019-05-22T07:57:43.175Z,995.08
2019-05-22T07:58:43.159Z,995.09
2019-05-22T07:59:43.142Z,995.12
2019-05-22T08:00:43.127Z,995.13
2019-05-22T08:01:43.109Z,995.14
2019-05-22T08:02:43.098Z,995.17
2019-05-22T08:03:43.084Z,995.16
2019-05-22T08:04:43.068Z,995.14
2019-05-22T08:05:43.055Z,995.20
2019-05-22T08:06:43.033Z,995.15
2019-05-22T08:07:43.036Z,995.15
2019-05-22T08:08:43.022Z,995.12
2019-05-22T08:09:42.992Z,995.16
2019-05-22T08:10:42.970Z,995.14
2019-05-22T08:11:42.962Z,995.16
2019-05-22T08:12:42.947Z,995.15
2019-05-22T08:13:42.938Z,995.14
2019-05-22T08:14:42.920Z,995.23
2019-05-22T08:15:42.921Z,995.18
2019-05-22T08:16:42.885Z,995.20
2019-05-22T08:17:42.873Z,995.18
2019-05-22T08:18:42.903Z,995.24
2019-05-22T08:19:42.842Z,995.25
2019-05-22T08:20:42.866Z,995.21
2019-05-22T08:21:42.874Z,995.22
2019-05-22T08:22:42.806Z,995.22
2019-05-22T08:23:42.784Z,995.24
2019-05-22T08:24:42.816Z,995.24
2019-05-22T08:25:42.758Z,995.20
2019-05-22T08:26:53.939Z,995.22
2019-05-22T08:27:42.721Z,995.23
2019-05-22T08:28:42.710Z,995.21
2019-05-22T08:29:42.693Z,995.20
2019-05-22T08:30:42.681Z,995.22
2019-05-22T08:31:42.664Z,995.22
2019-05-22T08:32:42.644Z,995.17
2019-05-22T08:33:42.638Z,995.15
2019-05-22T08:34:42.624Z,995.17
2019-05-22T08:35:42.605Z,995.19
2019-05-22T08:36:42.603Z,995.20
2019-05-22T08:37:42.628Z,995.21
2019-05-22T08:38:42.562Z,995.21
2019-05-22T08:39:42.547Z,995.21
2019-05-22T08:40:42.527Z,995.17
2019-05-22T08:41:42.528Z,995.17
2019-05-22T08:42:42.502Z,995.20
2019-05-22T08:44:11.206Z,995.22
2019-05-22T08:44:42.482Z,995.22
2019-05-22T08:45:42.464Z,995.25
2019-05-22T08:46:42.451Z,995.22
2019-05-22T08:47:42.435Z,995.23
2019-05-22T08:48:47.714Z,995.24
2019-05-22T08:49:42.403Z,995.27
2019-05-22T08:50:42.392Z,995.26
2019-05-22T08:51:42.402Z,995.26
2019-05-22T08:52:42.375Z,995.24
2019-05-22T08:53:47.687Z,995.26
2019-05-22T08:54:42.335Z,995.24
2019-05-22T08:55:42.329Z,995.25
2019-05-22T08:56:42.314Z,995.27
2019-05-22T08:57:42.294Z,995.23
2019-05-22T08:58:42.284Z,995.26
2019-05-22T08:59:42.285Z,995.30
2019-05-22T09:00:42.256Z,995.35
2019-05-22T09:01:42.239Z,995.34
2019-05-22T09:02:42.237Z,995.33
2019-05-22T09:03:42.244Z,995.28
2019-05-22T09:04:42.197Z,995.29
2019-05-22T09:05:42.184Z,995.35
2019-05-22T09:06:42.171Z,995.36
2019-05-22T09:07:42.170Z,995.38
2019-05-22T09:08:42.143Z,995.35
2019-05-22T09:09:42.129Z,995.37
2019-05-22T09:10:42.125Z,995.43
2019-05-22T09:11:42.103Z,995.40
2019-05-22T09:12:42.093Z,995.39
2019-05-22T09:13:42.096Z,995.43
2019-05-22T09:14:42.085Z,995.42
2019-05-22T09:15:42.043Z,995.39
2019-05-22T09:16:42.040Z,995.44
2019-05-22T09:17:42.020Z,995.41
2019-05-22T09:18:42.006Z,995.42
2019-05-22T09:19:42.002Z,995.46
2019-05-22T09:20:49.158Z,995.44
2019-05-22T09:21:41.967Z,995.47
2019-05-22T09:22:41.969Z,995.51
2019-05-22T09:23:41.946Z,995.50
2019-05-22T09:24:41.930Z,995.53
2019-05-22T09:25:41.930Z,995.55
2019-05-22T09:26:41.889Z,995.54
2019-05-22T09:27:41.903Z,995.53
2019-05-22T09:28:41.868Z,995.61
2019-05-22T09:29:41.861Z,995.54
2019-05-22T09:30:41.841Z,995.56
2019-05-22T09:31:41.825Z,995.60
2019-05-22T09:32:41.827Z,995.61
2019-05-22T09:33:41.811Z,995.63
2019-05-22T09:34:41.809Z,995.64
2019-05-22T09:35:41.854Z,995.64
2019-05-22T09:36:41.755Z,995.63
2019-05-22T09:37:41.742Z,995.65
2019-05-22T09:38:41.737Z,995.62
2019-05-22T09:39:41.713Z,995.64
2019-05-22T09:40:41.701Z,995.62
2019-05-22T09:41:41.691Z,995.63
2019-05-22T09:42:41.670Z,995.64
2019-05-22T09:43:41.665Z,995.72
2019-05-22T09:44:41.643Z,995.69
2019-05-22T09:45:41.630Z,995.76
2019-05-22T09:46:41.650Z,995.75
2019-05-22T09:47:41.615Z,995.76
2019-05-22T09:48:41.598Z,995.77
2019-05-22T09:49:41.575Z,995.76
2019-05-22T09:50:41.551Z,995.76
2019-05-22T09:51:41.547Z,995.79
2019-05-22T09:52:56.274Z,995.81
2019-05-22T09:53:41.517Z,995.84
2019-05-22T09:54:41.502Z,995.81
2019-05-22T09:55:41.482Z,995.80
2019-05-22T09:56:41.467Z,995.82
2019-05-22T09:57:41.457Z,995.81
2019-05-22T09:58:41.446Z,995.82
2019-05-22T09:59:41.431Z,995.85
2019-05-22T10:00:41.418Z,995.82
2019-05-22T10:01:41.423Z,995.86
2019-05-22T10:02:41.392Z,995.86
2019-05-22T10:03:41.374Z,995.86
2019-05-22T10:04:41.359Z,995.89
2019-05-22T10:05:41.385Z,995.85
2019-05-22T10:06:41.335Z,995.85
2019-05-22T10:07:57.753Z,995.89
2019-05-22T10:08:41.300Z,995.93
2019-05-22T10:09:41.290Z,995.86
2019-05-22T10:10:41.272Z,995.85
2019-05-22T10:11:41.260Z,995.87
2019-05-22T10:12:41.248Z,995.86
2019-05-22T10:13:41.257Z,995.86
2019-05-22T10:14:41.217Z,995.94
2019-05-22T10:15:41.209Z,995.88
2019-05-22T10:16:41.196Z,995.94
2019-05-22T10:17:41.182Z,995.90
2019-05-22T10:18:41.187Z,995.93
2019-05-22T10:19:41.170Z,995.92
2019-05-22T10:20:41.146Z,995.91
2019-05-22T10:21:41.121Z,995.97
2019-05-22T10:22:41.163Z,995.94
2019-05-22T10:23:41.101Z,995.92
2019-05-22T10:24:41.086Z,995.90
2019-05-22T10:25:41.069Z,995.93
2019-05-22T10:26:41.121Z,995.92
2019-05-22T10:27:41.056Z,995.92
2019-05-22T10:28:41.074Z,995.97
2019-05-22T10:29:41.024Z,995.98
2019-05-22T10:30:41.007Z,995.99
2019-05-22T10:31:40.994Z,996.00
2019-05-22T10:32:41.036Z,995.97
2019-05-22T10:33:40.971Z,995.95
2019-05-22T10:34:40.957Z,996.00
2019-05-22T10:35:40.949Z,995.99
2019-05-22T10:36:43.120Z,995.96
2019-05-22T10:37:40.917Z,995.98
2019-05-22T10:38:40.904Z,996.00
2019-05-22T10:39:40.890Z,996.02
2019-05-22T10:40:40.881Z,996.02
2019-05-22T10:41:40.877Z,996.07
2019-05-22T10:42:44.625Z,996.05
2019-05-22T10:43:40.839Z,996.03
2019-05-22T10:44:40.836Z,996.10
2019-05-22T10:45:40.813Z,996.08
2019-05-22T10:46:40.807Z,996.11
2019-05-22T10:47:40.792Z,996.13
2019-05-22T10:48:40.925Z,996.15
2019-05-22T10:49:40.768Z,996.14
2019-05-22T10:50:40.758Z,996.16
2019-05-22T10:51:40.746Z,996.18
2019-05-22T10:52:40.752Z,996.16
2019-05-22T10:53:40.728Z,996.17
2019-05-22T10:54:40.725Z,996.14
2019-05-22T10:55:40.691Z,996.17
2019-05-22T10:56:40.675Z,996.18
2019-05-22T10:57:41.309Z,996.14
2019-05-22T10:58:40.665Z,996.13
2019-05-22T10:59:40.642Z,996.13
2019-05-22T11:00:40.634Z,996.13
2019-05-22T11:01:40.632Z,996.12
2019-05-22T11:02:40.612Z,996.12
2019-05-22T11:03:40.601Z,996.18
2019-05-22T11:04:40.586Z,996.20
2019-05-22T11:05:40.570Z,996.18
2019-05-22T11:06:40.561Z,996.18
2019-05-22T11:07:40.556Z,996.14
2019-05-22T11:08:40.557Z,996.18
2019-05-22T11:09:40.538Z,996.15
2019-05-22T11:10:40.528Z,996.16
2019-05-22T11:11:40.512Z,996.15
2019-05-22T11:12:40.506Z,996.09
2019-05-22T11:13:40.568Z,996.12
2019-05-22T11:14:40.490Z,996.14
2019-05-22T11:15:40.487Z,996.18
2019-05-22T11:16:40.480Z,996.21
2019-05-22T11:17:40.490Z,996.20
2019-05-22T11:18:40.464Z,996.21
2019-05-22T11:19:40.454Z,996.20
2019-05-22T11:20:40.446Z,996.20
2019-05-22T11:21:40.447Z,996.17
2019-05-22T11:22:40.433Z,996.26
2019-05-22T11:23:51.480Z,996.20
2019-05-22T11:24:40.419Z,996.21
2019-05-22T11:25:40.432Z,996.23
2019-05-22T11:26:40.403Z,996.20
2019-05-22T11:27:40.402Z,996.23
2019-05-22T11:28:40.401Z,996.21
2019-05-22T11:29:40.481Z,996.24
2019-05-22T11:30:40.375Z,996.31
2019-05-22T11:31:40.364Z,996.25
2019-05-22T11:32:40.356Z,996.25
2019-05-22T11:33:40.346Z,996.28
2019-05-22T11:34:40.338Z,996.26
2019-05-22T11:35:40.336Z,996.27
2019-05-22T11:36:40.343Z,996.30
2019-05-22T11:37:40.316Z,996.26
2019-05-22T11:38:40.305Z,996.26
2019-05-22T11:39:44.523Z,996.23
2019-05-22T11:40:40.287Z,996.24
2019-05-22T11:41:40.275Z,996.24
2019-05-22T11:42:40.271Z,996.22
2019-05-22T11:43:40.258Z,996.27
2019-05-22T11:44:40.253Z,996.20
2019-05-22T11:45:40.248Z,996.23
2019-05-22T11:46:40.239Z,996.25
2019-05-22T11:47:40.223Z,996.22
2019-05-22T11:48:40.209Z,996.22
2019-05-22T11:49:40.218Z,996.18
2019-05-22T11:50:40.185Z,996.24
2019-05-22T11:51:40.181Z,996.24
2019-05-22T11:52:40.167Z,996.24
2019-05-22T11:53:40.157Z,996.24
2019-05-22T11:54:40.167Z,996.23
2019-05-22T11:55:45.403Z,996.30
2019-05-22T11:56:40.121Z,996.27
2019-05-22T11:57:40.115Z,996.23
2019-05-22T11:58:40.108Z,996.28
2019-05-22T11:59:40.095Z,996.29
2019-05-22T12:00:40.084Z,996.29
2019-05-22T12:01:40.113Z,996.28
2019-05-22T12:02:40.072Z,996.30
2019-05-22T12:03:40.055Z,996.30
2019-05-22T12:04:48.127Z,996.26
2019-05-22T12:05:40.055Z,996.27
2019-05-22T12:06:40.011Z,996.27
2019-05-22T12:07:40.017Z,996.24
2019-05-22T12:08:40.166Z,996.25
2019-05-22T12:09:39.991Z,996.26
2019-05-22T12:10:39.976Z,996.21
2019-05-22T12:11:43.021Z,996.24
2019-05-22T12:12:39.956Z,996.24
2019-05-22T12:13:39.933Z,996.24
2019-05-22T12:14:39.926Z,996.19
2019-05-22T12:15:39.923Z,996.26
2019-05-22T12:16:39.923Z,996.25
2019-05-22T12:17:39.914Z,996.21
2019-05-22T12:18:39.888Z,996.22
2019-05-22T12:19:39.873Z,996.22
2019-05-22T12:20:39.867Z,996.19
2019-05-22T12:21:39.858Z,996.17
2019-05-22T12:22:39.843Z,996.21
2019-05-22T12:23:39.827Z,996.18
2019-05-22T12:24:39.837Z,996.21
2019-05-22T12:25:39.807Z,996.25
2019-05-22T12:26:39.808Z,996.25
2019-05-22T12:27:39.791Z,996.21
2019-05-22T12:28:39.796Z,996.15